Time;durP1;ratioP1;P1;durP2;ratioP2;P2;SDS_P1;SDS_P2;PMS_P1;PMS_P2;Temp;Humidity;BMP_temperature;BMP_pressure;BME280_temperature;BME280_humidity;BME280_pressure;Samples;Min_cycle;Max_cycle;Signal;HPM_P1;HPM_P2
2023/09/06 00:01:11;;;;;;;;;10.50;10.00;;;;;-146.67;100.00;57155.34;5124406;28;8784;-78
2023/09/06 00:03:37;;;;;;;;;11.00;11.00;;;;;-146.67;100.00;57155.34;5108610;28;8822;-78
2023/09/06 00:06:03;;;;;;;;;13.50;12.25;;;;;-146.67;100.00;57155.34;5112389;28;8808;-78
2023/09/06 00:08:33;;;;;;;;;14.33;11.00;;;;;-146.67;100.00;57155.34;5102978;28;9419;-77
2023/09/06 00:11:05;;;;;;;;;14.33;10.33;;;;;-146.67;100.00;57155.34;5101484;28;9490;-78
2023/09/06 00:13:32;;;;;;;;;11.67;11.00;;;;;-146.67;100.00;57155.34;5101902;28;10398;-78
2023/09/06 00:15:58;;;;;;;;;12.00;11.67;;;;;-146.67;100.00;57155.34;5102412;28;10214;-78
2023/09/06 00:18:23;;;;;;;;;12.00;11.00;;;;;-146.67;100.00;57155.34;5102011;28;9493;-78
2023/09/06 00:20:48;;;;;;;;;13.67;13.33;;;;;-146.67;100.00;57155.34;5101017;28;8791;-77
2023/09/06 00:23:15;;;;;;;;;15.00;14.00;;;;;-146.67;100.00;57155.34;5101029;28;8835;-78
2023/09/06 00:25:40;;;;;;;;;14.00;11.67;;;;;-146.67;100.00;57155.34;5102950;28;8747;-78
2023/09/06 00:28:09;;;;;;;;;12.67;12.67;;;;;-146.67;100.00;57155.34;5103562;28;9422;-78
2023/09/06 00:30:35;;;;;;;;;14.67;13.67;;;;;-146.67;100.00;57155.34;5085267;28;8801;-78
2023/09/06 00:33:05;;;;;;;;;17.00;14.25;;;;;-146.67;100.00;57155.34;5103425;28;9470;-78
2023/09/06 00:35:32;;;;;;;;;20.00;13.33;;;;;-146.67;100.00;57155.34;5103181;28;8704;-78
2023/09/06 00:38:05;;;;;;;;;14.25;12.50;;;;;-146.67;100.00;57155.34;5103070;28;9343;-77
2023/09/06 00:40:37;;;;;;;;;15.00;11.50;;;;;-146.67;100.00;57155.34;5101618;28;9545;-78
2023/09/06 00:43:07;;;;;;;;;12.67;12.67;;;;;-146.67;100.00;57155.34;5103331;28;9612;-77
2023/09/06 00:45:48;;;;;;;;;17.00;15.25;;;;;-146.67;100.00;57155.34;5084232;28;9713;-78
2023/09/06 00:48:16;;;;;;;;;13.67;13.00;;;;;-146.67;100.00;57155.34;5101547;28;9517;-77
2023/09/06 00:50:43;;;;;;;;;15.33;14.33;;;;;-146.67;100.00;57155.34;5101344;28;9486;-78
2023/09/06 00:53:09;;;;;;;;;11.75;10.50;;;;;-146.67;100.00;57155.34;5106274;28;9477;-78
2023/09/06 00:55:37;;;;;;;;;14.00;12.50;;;;;-146.67;100.00;57155.34;5102097;28;9645;-78
2023/09/06 00:58:03;;;;;;;;;14.33;14.00;;;;;-146.67;100.00;57155.34;5101514;28;9576;-78
2023/09/06 01:00:30;;;;;;;;;16.33;15.00;;;;;-146.67;100.00;57155.34;5102960;28;9333;-78
2023/09/06 01:02:56;;;;;;;;;19.00;13.00;;;;;-146.67;100.00;57155.34;5101679;28;9587;-77
2023/09/06 01:05:23;;;;;;;;;18.00;14.00;;;;;-146.67;100.00;57155.34;5101286;28;9930;-78
2023/09/06 01:08:07;;;;;;;;;18.67;15.00;;;;;-146.67;100.00;57155.34;5102391;28;8731;-77
2023/09/06 01:10:36;;;;;;;;;13.00;11.33;;;;;-146.67;100.00;57155.34;5102101;28;10370;-78
2023/09/06 01:13:01;;;;;;;;;9.50;9.00;;;;;-146.67;100.00;57155.34;5103018;28;9285;-78
2023/09/06 01:15:27;;;;;;;;;14.50;12.75;;;;;-146.67;100.00;57155.34;5102373;28;9855;-78
2023/09/06 01:17:54;;;;;;;;;13.50;11.25;;;;;-146.67;100.00;57155.34;5102814;28;8720;-78
2023/09/06 01:20:42;;;;;;;;;13.75;11.50;;;;;-146.67;100.00;57155.34;5083376;28;9591;-78
2023/09/06 01:23:47;;;;;;;;;15.00;13.75;;;;;-146.67;100.00;57155.34;5101444;28;9813;-78
2023/09/06 01:26:13;;;;;;;;;13.00;12.00;;;;;-146.67;100.00;57155.34;5040432;28;10123;-78
2023/09/06 01:28:38;;;;;;;;;13.50;13.50;;;;;-146.67;100.00;57155.34;5038039;28;9568;-78
2023/09/06 01:31:04;;;;;;;;;14.25;12.00;;;;;-146.67;100.00;57155.34;5046871;28;8895;-78
2023/09/06 01:33:30;;;;;;;;;18.00;12.00;;;;;-146.67;100.00;57155.34;5040995;28;9108;-78
2023/09/06 01:35:56;;;;;;;;;14.75;11.50;;;;;-146.67;100.00;57155.34;5022321;28;8816;-77
2023/09/06 01:38:21;;;;;;;;;10.25;9.75;;;;;-146.67;100.00;57155.34;5033489;28;9666;-77
2023/09/06 01:40:47;;;;;;;;;13.75;12.25;;;;;-146.67;100.00;57155.34;5006884;28;8838;-78
2023/09/06 01:43:12;;;;;;;;;11.25;9.25;;;;;-146.67;100.00;57155.34;5028690;28;8815;-78
2023/09/06 01:45:51;;;;;;;;;14.75;12.50;;;;;-146.67;100.00;57155.34;5026322;28;8892;-78
2023/09/06 01:48:19;;;;;;;;;18.25;12.00;;;;;-146.67;100.00;57155.34;5043192;28;8714;-78
2023/09/06 01:50:45;;;;;;;;;14.75;12.50;;;;;-146.67;100.00;57155.34;5042495;28;9602;-78
2023/09/06 01:53:13;;;;;;;;;18.25;12.75;;;;;-146.67;100.00;57155.34;5025813;28;9685;-77
2023/09/06 01:55:40;;;;;;;;;14.00;11.00;;;;;-146.67;100.00;57155.34;5025945;28;11519;-78
2023/09/06 01:58:06;;;;;;;;;11.25;10.50;;;;;-146.67;100.00;57155.34;5104742;28;9622;-78
2023/09/06 02:00:34;;;;;;;;;13.00;11.00;;;;;-146.67;100.00;57155.34;5105870;28;9670;-78
2023/09/06 02:03:00;;;;;;;;;12.25;11.25;;;;;-146.67;100.00;57155.34;5105602;28;8811;-78
2023/09/06 02:05:26;;;;;;;;;14.00;10.75;;;;;-146.67;100.00;57155.34;5105786;28;9763;-78
2023/09/06 02:07:52;;;;;;;;;13.75;10.25;;;;;-146.67;100.00;57155.34;5102910;28;9490;-77
2023/09/06 02:10:18;;;;;;;;;11.00;8.75;;;;;-146.67;100.00;57155.34;5086825;28;8905;-78
2023/09/06 02:12:44;;;;;;;;;11.00;9.25;;;;;-146.67;100.00;57155.34;5105718;28;8797;-78
2023/09/06 02:15:13;;;;;;;;;9.00;9.00;;;;;-146.67;100.00;57155.34;5103863;28;9655;-78
2023/09/06 02:17:42;;;;;;;;;9.25;9.25;;;;;-146.67;100.00;57155.34;5105684;28;9660;-78
2023/09/06 02:20:19;;;;;;;;;14.33;7.67;;;;;-146.67;100.00;57155.34;5102135;28;9676;-78
2023/09/06 02:22:52;;;;;;;;;10.33;9.00;;;;;-146.67;100.00;57155.34;5104233;28;9646;-77
2023/09/06 02:25:23;;;;;;;;;6.33;5.67;;;;;-146.67;100.00;57155.34;5103913;28;10578;-78
2023/09/06 02:27:48;;;;;;;;;7.00;7.00;;;;;-146.67;100.00;57155.34;5105772;28;9481;-78
2023/09/06 02:30:14;;;;;;;;;7.25;7.25;;;;;-146.67;100.00;57155.34;5104835;28;9420;-78
2023/09/06 02:32:40;;;;;;;;;10.00;8.00;;;;;-146.67;100.00;57155.34;5116926;28;8801;-77
2023/09/06 02:35:07;;;;;;;;;8.50;8.50;;;;;-146.67;100.00;57155.34;5106786;28;9936;-78
2023/09/06 02:37:33;;;;;;;;;8.00;8.00;;;;;-146.67;100.00;57155.34;5123965;28;8862;-78
2023/09/06 02:39:58;;;;;;;;;9.00;9.00;;;;;-146.67;100.00;57155.34;5107724;28;9365;-78
2023/09/06 02:42:24;;;;;;;;;8.67;7.33;;;;;-146.67;100.00;57155.34;5104902;28;9653;-78
2023/09/06 02:44:50;;;;;;;;;12.75;9.00;;;;;-146.67;100.00;57155.34;5097656;28;10038;-78
2023/09/06 02:47:16;;;;;;;;;10.00;10.00;;;;;-146.67;100.00;57155.34;5102130;28;8806;-78
2023/09/06 02:49:45;;;;;;;;;11.50;9.50;;;;;-146.67;100.00;57155.34;5104075;28;9497;-78
2023/09/06 02:52:35;;;;;;;;;9.67;9.67;;;;;-146.67;100.00;57155.34;5102947;28;8787;-78
2023/09/06 02:55:05;;;;;;;;;9.25;8.00;;;;;-146.67;100.00;57155.34;5086328;28;10445;-78
2023/09/06 02:57:31;;;;;;;;;12.75;11.00;;;;;-146.67;100.00;57155.34;5103705;28;10431;-78
2023/09/06 02:59:57;;;;;;;;;10.75;9.75;;;;;-146.67;100.00;57155.34;5097444;28;9669;-78
2023/09/06 03:02:23;;;;;;;;;9.50;9.50;;;;;-146.67;100.00;57155.34;5103161;28;9757;-78
2023/09/06 03:04:57;;;;;;;;;10.50;9.50;;;;;-146.67;100.00;57155.34;5104543;28;8794;-78
2023/09/06 03:07:23;;;;;;;;;13.75;8.50;;;;;-146.67;100.00;57155.34;5102760;28;8908;-78
2023/09/06 03:09:49;;;;;;;;;11.00;7.33;;;;;-146.67;100.00;57155.34;5104614;28;9502;-78
2023/09/06 03:12:16;;;;;;;;;12.25;12.25;;;;;-146.67;100.00;57155.34;5103229;28;8868;-78
2023/09/06 03:14:44;;;;;;;;;11.75;10.00;;;;;-146.67;100.00;57155.34;5103475;28;10046;-78
2023/09/06 03:17:18;;;;;;;;;11.00;10.50;;;;;-146.67;100.00;57155.34;5104394;28;9642;-78
2023/09/06 03:19:44;;;;;;;;;12.33;10.33;;;;;-146.67;100.00;57155.34;5118917;28;9586;-78
2023/09/06 03:22:12;;;;;;;;;11.00;8.00;;;;;-146.67;100.00;57155.34;5104619;28;9512;-78
2023/09/06 03:24:41;;;;;;;;;8.75;8.75;;;;;-146.67;100.00;57155.34;5102226;28;10447;-78
2023/09/06 03:27:08;;;;;;;;;12.00;11.50;;;;;-146.67;100.00;57155.34;5103040;28;9706;-77
2023/09/06 03:29:36;;;;;;;;;12.50;10.00;;;;;-146.67;100.00;57155.34;5085784;28;9655;-78
2023/09/06 03:32:05;;;;;;;;;10.75;7.50;;;;;-146.67;100.00;57155.34;5103319;28;9680;-78
2023/09/06 03:34:30;;;;;;;;;15.67;11.67;;;;;-146.67;100.00;57155.34;5101794;28;9668;-78
2023/09/06 03:36:57;;;;;;;;;11.00;9.00;;;;;-146.67;100.00;57155.34;5117634;28;9434;-78
2023/09/06 03:39:28;;;;;;;;;10.25;10.25;;;;;-146.67;100.00;57155.34;5124664;28;8812;-78
2023/09/06 03:41:55;;;;;;;;;14.50;12.25;;;;;-146.67;100.00;57155.34;5123763;28;9818;-77
2023/09/06 03:44:21;;;;;;;;;11.00;11.00;;;;;-146.67;100.00;57155.34;5102407;28;11053;-78
2023/09/06 03:46:46;;;;;;;;;12.50;9.50;;;;;-146.67;100.00;57155.34;5102541;28;9872;-78
2023/09/06 03:49:13;;;;;;;;;8.00;8.00;;;;;-146.67;100.00;57155.34;5103679;28;8833;-78
2023/09/06 03:51:38;;;;;;;;;13.75;9.75;;;;;-146.67;100.00;57155.34;5111545;28;8766;-78
2023/09/06 03:54:06;;;;;;;;;12.50;11.50;;;;;-146.67;100.00;57155.34;5115428;28;9954;-78
2023/09/06 03:56:31;;;;;;;;;14.00;12.50;;;;;-146.67;100.00;57155.34;5122273;28;8729;-78
2023/09/06 03:59:00;;;;;;;;;12.75;11.50;;;;;-146.67;100.00;57155.34;5123032;28;9817;-78
2023/09/06 04:01:26;;;;;;;;;15.50;14.00;;;;;-146.67;100.00;57155.34;5123045;28;8996;-78
2023/09/06 04:03:52;;;;;;;;;9.25;9.00;;;;;-146.67;100.00;57155.34;5123456;28;10119;-78
2023/09/06 04:06:19;;;;;;;;;11.00;9.25;;;;;-146.67;100.00;57155.34;5104600;28;9727;-78
2023/09/06 04:08:45;;;;;;;;;9.50;9.50;;;;;-146.67;100.00;57155.34;5103103;28;8818;-78
2023/09/06 04:11:10;;;;;;;;;16.50;12.00;;;;;-146.67;100.00;57155.34;5103846;28;9817;-78
2023/09/06 04:13:36;;;;;;;;;10.75;10.00;;;;;-146.67;100.00;57155.34;5103431;28;10018;-78
2023/09/06 04:16:01;;;;;;;;;12.00;10.25;;;;;-146.67;100.00;57155.34;5102724;28;8810;-78
2023/09/06 04:18:28;;;;;;;;;12.50;10.00;;;;;-146.67;100.00;57155.34;5101631;28;8846;-77
2023/09/06 04:20:53;;;;;;;;;10.75;9.75;;;;;-146.67;100.00;57155.34;5101534;28;8795;-78
2023/09/06 04:23:19;;;;;;;;;13.25;10.50;;;;;-146.67;100.00;57155.34;5090352;28;10084;-78
2023/09/06 04:25:44;;;;;;;;;13.75;9.25;;;;;-146.67;100.00;57155.34;5102042;28;8995;-77
2023/09/06 04:28:20;;;;;;;;;10.25;10.25;;;;;-146.67;100.00;57155.34;5101686;28;8822;-77
2023/09/06 04:30:46;;;;;;;;;11.25;9.75;;;;;-146.67;100.00;57155.34;5083329;28;8718;-79
2023/09/06 04:33:14;;;;;;;;;11.00;10.00;;;;;-146.67;100.00;57155.34;5079040;28;10046;-78
2023/09/06 04:35:45;;;;;;;;;12.00;9.25;;;;;-146.67;100.00;57155.34;5103500;28;8806;-78
2023/09/06 04:38:15;;;;;;;;;10.75;9.75;;;;;-146.67;100.00;57155.34;5102310;28;9903;-77
2023/09/06 04:40:44;;;;;;;;;12.00;9.00;;;;;-146.67;100.00;57155.34;5102108;28;9887;-78
2023/09/06 04:43:12;;;;;;;;;14.00;8.25;;;;;-146.67;100.00;57155.34;5106087;28;10071;-78
2023/09/06 04:45:37;;;;;;;;;12.25;11.00;;;;;-146.67;100.00;57155.34;5084880;28;9828;-78
2023/09/06 04:48:10;;;;;;;;;10.67;9.00;;;;;-146.67;100.00;57155.34;5101251;28;9654;-78
2023/09/06 04:50:40;;;;;;;;;13.50;11.00;;;;;-146.67;100.00;57155.34;5101868;28;8878;-78
2023/09/06 04:53:10;;;;;;;;;13.00;10.75;;;;;-146.67;100.00;57155.34;5102075;28;9814;-78
2023/09/06 04:55:36;;;;;;;;;13.75;9.25;;;;;-146.67;100.00;57155.34;5103253;28;9767;-78
2023/09/06 04:58:03;;;;;;;;;9.25;9.25;;;;;-146.67;100.00;57155.34;5102480;28;9789;-78
2023/09/06 05:00:36;;;;;;;;;11.00;10.00;;;;;-146.67;100.00;57155.34;5102017;28;9705;-78
2023/09/06 05:03:03;;;;;;;;;12.00;11.25;;;;;-146.67;100.00;57155.34;5084500;28;10003;-78
2023/09/06 05:05:28;;;;;;;;;14.50;12.00;;;;;-146.67;100.00;57155.34;5101684;28;9890;-79
2023/09/06 05:07:54;;;;;;;;;14.50;10.75;;;;;-146.67;100.00;57155.34;5101328;28;9900;-80
2023/09/06 05:10:19;;;;;;;;;12.00;9.50;;;;;-146.67;100.00;57155.34;5104883;28;8795;-75
2023/09/06 05:12:45;;;;;;;;;8.75;8.75;;;;;-146.67;100.00;57155.34;5103003;28;8795;-77
2023/09/06 05:15:12;;;;;;;;;12.00;10.25;;;;;-146.67;100.00;57155.34;5102377;28;8832;-79
2023/09/06 05:17:39;;;;;;;;;11.75;10.75;;;;;-146.67;100.00;57155.34;5105945;28;9951;-82
2023/09/06 05:20:26;;;;;;;;;14.50;11.75;;;;;-146.67;100.00;57155.34;5104279;28;10979;-85
2023/09/06 05:22:52;;;;;;;;;15.25;9.50;;;;;-146.67;100.00;57155.34;5100749;28;10149;-81
2023/09/06 05:25:18;;;;;;;;;14.00;11.00;;;;;-146.67;100.00;57155.34;5110418;28;10056;-80
2023/09/06 05:27:43;;;;;;;;;12.00;11.00;;;;;-146.67;100.00;57155.34;5105801;28;8810;-86
2023/09/06 05:30:18;;;;;;;;;11.00;9.25;;;;;-146.67;100.00;57155.34;5106524;28;8825;-81
2023/09/06 05:32:44;;;;;;;;;13.00;10.75;;;;;-146.67;100.00;57155.34;5102684;28;8753;-77
2023/09/06 05:35:14;;;;;;;;;13.25;12.25;;;;;-146.67;100.00;57155.34;5087941;28;9933;-77
2023/09/06 05:37:41;;;;;;;;;10.50;9.00;;;;;-146.67;100.00;57155.34;5107420;28;11475;-77
2023/09/06 05:40:08;;;;;;;;;14.25;9.50;;;;;-146.67;100.00;57155.34;5104507;28;9864;-76
2023/09/06 05:42:34;;;;;;;;;17.50;12.75;;;;;-146.67;100.00;57155.34;5103451;28;10077;-77
2023/09/06 05:45:00;;;;;;;;;18.50;10.50;;;;;-146.67;100.00;57155.34;5099586;28;9970;-78
2023/09/06 05:47:25;;;;;;;;;13.75;10.50;;;;;-146.67;100.00;57155.34;5099995;28;9679;-78
2023/09/06 05:49:55;;;;;;;;;10.00;9.50;;;;;-146.67;100.00;57155.34;5095779;28;8818;-77
2023/09/06 05:52:21;;;;;;;;;12.50;12.25;;;;;-146.67;100.00;57155.34;5099175;28;8791;-78
2023/09/06 05:54:48;;;;;;;;;12.00;11.50;;;;;-146.67;100.00;57155.34;5098119;28;9797;-77
2023/09/06 05:57:14;;;;;;;;;15.75;11.50;;;;;-146.67;100.00;57155.34;5095810;28;9963;-77
2023/09/06 05:59:40;;;;;;;;;16.75;13.25;;;;;-146.67;100.00;57155.34;5093069;28;9748;-77
2023/09/06 06:02:07;;;;;;;;;12.75;12.00;;;;;-146.67;100.00;57155.34;5109095;28;10896;-77
2023/09/06 06:04:33;;;;;;;;;12.00;12.00;;;;;-146.67;100.00;57155.34;5089776;28;9669;-77
2023/09/06 06:06:59;;;;;;;;;14.00;10.75;;;;;-146.67;100.00;57155.34;5116138;28;9803;-76
2023/09/06 06:09:25;;;;;;;;;17.25;14.50;;;;;-146.67;100.00;57155.34;5113000;28;8801;-81
2023/09/06 06:11:53;;;;;;;;;16.50;12.50;;;;;-146.67;100.00;57155.34;5085990;28;10114;-77
2023/09/06 06:14:20;;;;;;;;;12.25;12.00;;;;;-146.67;100.00;57155.34;5096723;28;9879;-78
2023/09/06 06:16:46;;;;;;;;;12.75;10.75;;;;;-146.67;100.00;57155.34;5100374;28;9839;-78
2023/09/06 06:19:11;;;;;;;;;17.75;15.00;;;;;-146.67;100.00;57155.34;5113835;28;10436;-78
2023/09/06 06:21:38;;;;;;;;;14.00;12.00;;;;;-146.67;100.00;57155.34;5103993;28;8826;-76
2023/09/06 06:24:08;;;;;;;;;17.00;11.00;;;;;-146.67;100.00;57155.34;5085648;28;8821;-77
2023/09/06 06:26:33;;;;;;;;;17.75;15.00;;;;;-146.67;100.00;57155.34;5086726;28;9446;-77
2023/09/06 06:28:59;;;;;;;;;19.75;14.00;;;;;-146.67;100.00;57155.34;5103985;28;9878;-77
2023/09/06 06:31:25;;;;;;;;;14.50;13.25;;;;;-146.67;100.00;57155.34;5124204;28;8804;-76
2023/09/06 06:33:50;;;;;;;;;16.00;14.25;;;;;-146.67;100.00;57155.34;5099722;28;8909;-76
2023/09/06 06:36:16;;;;;;;;;14.75;14.75;;;;;-146.67;100.00;57155.34;5102869;28;8815;-77
2023/09/06 06:38:46;;;;;;;;;10.50;10.00;;;;;-146.67;100.00;57155.34;5104914;28;8791;-77
2023/09/06 06:41:22;;;;;;;;;14.00;13.50;;;;;-146.67;100.00;57155.34;5122093;28;8853;-78
2023/09/06 06:43:52;;;;;;;;;12.50;9.25;;;;;-146.67;100.00;57155.34;5085498;28;9902;-77
2023/09/06 06:46:29;;;;;;;;;13.25;10.50;;;;;-146.67;100.00;57155.34;5109325;28;9643;-78
2023/09/06 06:48:56;;;;;;;;;9.50;7.00;;;;;-146.67;100.00;57155.34;5090199;28;9635;-78
2023/09/06 06:51:25;;;;;;;;;11.33;8.67;;;;;-146.67;100.00;57155.34;5087918;28;10517;-77
2023/09/06 06:53:51;;;;;;;;;7.75;7.75;;;;;-146.67;100.00;57155.34;5106634;28;9514;-77
2023/09/06 06:56:21;;;;;;;;;12.25;9.75;;;;;-146.67;100.00;57155.34;5108419;28;9572;-77
2023/09/06 06:58:50;;;;;;;;;8.25;8.00;;;;;-146.67;100.00;57155.34;5092263;28;8791;-77
2023/09/06 07:01:16;;;;;;;;;7.75;7.75;;;;;-146.67;100.00;57155.34;5103047;28;9879;-78
2023/09/06 07:03:41;;;;;;;;;22.50;21.25;;;;;-146.67;100.00;57155.34;5104394;28;9494;-77
2023/09/06 07:06:08;;;;;;;;;12.75;10.00;;;;;-146.67;100.00;57155.34;5102728;28;8787;-77
2023/09/06 07:08:35;;;;;;;;;6.00;6.00;;;;;-146.67;100.00;57155.34;5085844;28;8783;-77
2023/09/06 07:11:03;;;;;;;;;11.00;9.00;;;;;-146.67;100.00;57155.34;5112223;28;9276;-77
2023/09/06 07:13:29;;;;;;;;;10.00;9.33;;;;;-146.67;100.00;57155.34;5111818;28;9340;-78
2023/09/06 07:15:54;;;;;;;;;9.33;8.67;;;;;-146.67;100.00;57155.34;5119794;28;9409;-78
2023/09/06 07:18:20;;;;;;;;;8.00;8.00;;;;;-146.67;100.00;57155.34;5103381;28;8862;-78
2023/09/06 07:20:47;;;;;;;;;9.33;7.67;;;;;-146.67;100.00;57155.34;5119933;28;8844;-77
2023/09/06 07:23:12;;;;;;;;;7.67;7.00;;;;;-146.67;100.00;57155.34;5110740;28;8825;-77
2023/09/06 07:25:39;;;;;;;;;8.00;8.00;;;;;-146.67;100.00;57155.34;5106091;28;9184;-77
2023/09/06 07:28:05;;;;;;;;;14.00;11.00;;;;;-146.67;100.00;57155.34;5124618;28;8769;-77
2023/09/06 07:30:31;;;;;;;;;10.33;9.67;;;;;-146.67;100.00;57155.34;5104650;28;9516;-77
2023/09/06 07:32:56;;;;;;;;;8.33;8.00;;;;;-146.67;100.00;57155.34;5117918;28;8834;-77
2023/09/06 07:35:22;;;;;;;;;8.67;8.67;;;;;-146.67;100.00;57155.34;5112162;28;9269;-77
2023/09/06 07:37:47;;;;;;;;;10.00;8.00;;;;;-146.67;100.00;57155.34;5112831;28;8824;-77
2023/09/06 07:40:13;;;;;;;;;10.33;8.33;;;;;-146.67;100.00;57155.34;5111691;28;8800;-77
2023/09/06 07:42:39;;;;;;;;;8.00;8.00;;;;;-146.67;100.00;57155.34;5121413;28;8791;-77
2023/09/06 07:45:08;;;;;;;;;11.33;7.00;;;;;-146.67;100.00;57155.34;5112824;28;11448;-76
2023/09/06 07:47:34;;;;;;;;;8.00;8.00;;;;;-146.67;100.00;57155.34;5112351;28;9253;-77
2023/09/06 07:49:59;;;;;;;;;11.33;9.33;;;;;-146.67;100.00;57155.34;5108844;28;10347;-77
2023/09/06 07:52:28;;;;;;;;;8.67;8.67;;;;;-146.67;100.00;57155.34;5113216;28;9281;-78
2023/09/06 07:55:07;;;;;;;;;12.00;8.33;;;;;-146.67;100.00;57155.34;5114082;28;8785;-77
2023/09/06 07:57:39;;;;;;;;;7.00;5.67;;;;;-146.67;100.00;57155.34;5119606;28;9322;-77
2023/09/06 08:00:06;;;;;;;;;8.33;8.33;;;;;-146.67;100.00;57155.34;5113902;28;9297;-77
2023/09/06 08:02:31;;;;;;;;;10.67;8.00;;;;;-146.67;100.00;57155.34;5112391;28;9408;-78
2023/09/06 08:04:57;;;;;;;;;7.00;6.00;;;;;-146.67;100.00;57155.34;5113217;28;9229;-78
2023/09/06 08:07:23;;;;;;;;;7.33;7.33;;;;;-146.67;100.00;57155.34;5108669;28;8747;-78
2023/09/06 08:09:49;;;;;;;;;8.67;8.00;;;;;-146.67;100.00;57155.34;5118030;28;9482;-78
2023/09/06 08:12:15;;;;;;;;;11.33;8.33;;;;;-146.67;100.00;57155.34;5112766;28;8771;-80
2023/09/06 08:14:42;;;;;;;;;8.33;8.33;;;;;-146.67;100.00;57155.34;5115604;28;8767;-77
2023/09/06 08:17:08;;;;;;;;;12.00;11.33;;;;;-146.67;100.00;57155.34;5116444;28;9344;-77
2023/09/06 08:19:33;;;;;;;;;10.67;9.00;;;;;-146.67;100.00;57155.34;5113924;28;9424;-77
2023/09/06 08:21:59;;;;;;;;;10.33;8.67;;;;;-146.67;100.00;57155.34;5110480;28;9137;-77
2023/09/06 08:24:25;;;;;;;;;8.33;8.00;;;;;-146.67;100.00;57155.34;5094546;28;8827;-77
2023/09/06 08:26:50;;;;;;;;;10.00;10.00;;;;;-146.67;100.00;57155.34;5096068;28;9001;-77
2023/09/06 08:29:16;;;;;;;;;10.00;8.67;;;;;-146.67;100.00;57155.34;5095781;28;9966;-77
2023/09/06 08:31:41;;;;;;;;;10.67;9.00;;;;;-146.67;100.00;57155.34;5103503;28;8819;-77
2023/09/06 08:34:07;;;;;;;;;9.33;8.33;;;;;-146.67;100.00;57155.34;5103136;28;8806;-77
2023/09/06 08:36:33;;;;;;;;;13.67;8.67;;;;;-146.67;100.00;57155.34;5101258;28;9597;-77
2023/09/06 08:38:58;;;;;;;;;10.00;9.33;;;;;-146.67;100.00;57155.34;5100505;28;9934;-77
2023/09/06 08:41:26;;;;;;;;;6.33;5.00;;;;;-146.67;100.00;57155.34;5101364;28;8829;-77
2023/09/06 08:43:52;;;;;;;;;11.67;9.67;;;;;-146.67;100.00;57155.34;5107916;28;8751;-77
2023/09/06 08:46:23;;;;;;;;;7.33;5.67;;;;;-146.67;100.00;57155.34;5102134;28;9137;-77
2023/09/06 08:48:51;;;;;;;;;11.00;7.00;;;;;-146.67;100.00;57155.34;5111278;28;10228;-77
2023/09/06 08:51:18;;;;;;;;;10.33;7.33;;;;;-146.67;100.00;57155.34;5100052;28;9133;-77
2023/09/06 08:53:47;;;;;;;;;9.00;8.00;;;;;-146.67;100.00;57155.34;5102527;28;9326;-78
2023/09/06 08:56:15;;;;;;;;;10.67;10.33;;;;;-146.67;100.00;57155.34;5100279;28;9182;-77
2023/09/06 08:58:41;;;;;;;;;9.00;7.67;;;;;-146.67;100.00;57155.34;5091299;28;9504;-77
2023/09/06 09:01:08;;;;;;;;;6.00;6.00;;;;;-146.67;100.00;57155.34;5105563;28;9308;-77
2023/09/06 09:03:33;;;;;;;;;8.33;6.00;;;;;-146.67;100.00;57155.34;5101366;28;9365;-77
2023/09/06 09:06:00;;;;;;;;;9.67;8.67;;;;;-146.67;100.00;57155.34;5102823;28;9048;-77
2023/09/06 09:08:31;;;;;;;;;12.33;6.33;;;;;-146.67;100.00;57155.34;5115820;28;8741;-77
2023/09/06 09:11:18;;;;;;;;;9.33;8.00;;;;;-146.67;100.00;57155.34;5118828;28;9190;-77
2023/09/06 09:13:45;;;;;;;;;9.67;6.33;;;;;-146.67;100.00;57155.34;5120295;28;9193;-77
2023/09/06 09:16:12;;;;;;;;;9.67;7.67;;;;;-146.67;100.00;57155.34;5122215;28;9089;-77
2023/09/06 09:18:39;;;;;;;;;8.33;6.00;;;;;-146.67;100.00;57155.34;5106745;28;9351;-77
2023/09/06 09:21:08;;;;;;;;;8.67;7.00;;;;;-146.67;100.00;57155.34;5108644;28;9482;-77
2023/09/06 09:23:42;;;;;;;;;10.00;7.00;;;;;-146.67;100.00;57155.34;5091617;28;9152;-77
2023/09/06 09:26:08;;;;;;;;;7.67;5.00;;;;;-146.67;100.00;57155.34;5089857;28;9058;-77
2023/09/06 09:28:34;;;;;;;;;6.33;6.00;;;;;-146.67;100.00;57155.34;5118103;28;10054;-77
2023/09/06 09:31:01;;;;;;;;;5.33;4.33;;;;;-146.67;100.00;57155.34;5100935;28;9178;-77
2023/09/06 09:33:28;;;;;;;;;4.67;4.00;;;;;-146.67;100.00;57155.34;5100542;28;11394;-77
2023/09/06 09:35:55;;;;;;;;;7.00;6.00;;;;;-146.67;100.00;57155.34;5094160;28;9299;-77
2023/09/06 09:38:20;;;;;;;;;7.00;6.00;;;;;-146.67;100.00;57155.34;5103615;28;9991;-77
2023/09/06 09:40:46;;;;;;;;;8.33;6.67;;;;;-146.67;100.00;57155.34;5117867;28;9033;-77
2023/09/06 09:43:11;;;;;;;;;7.33;5.67;;;;;-146.67;100.00;57155.34;5114900;28;8810;-77
2023/09/06 09:45:45;;;;;;;;;7.00;5.00;;;;;-146.67;100.00;57155.34;5099380;28;8775;-77
2023/09/06 09:48:11;;;;;;;;;7.00;6.00;;;;;-146.67;100.00;57155.34;5104232;28;10148;-77
2023/09/06 09:50:41;;;;;;;;;9.00;6.00;;;;;-146.67;100.00;57155.34;5109364;28;9060;-77
2023/09/06 09:53:08;;;;;;;;;3.67;3.67;;;;;-146.67;100.00;57155.34;5093690;28;9060;-77
2023/09/06 09:55:41;;;;;;;;;7.67;4.33;;;;;-146.67;100.00;57155.34;5114373;28;9099;-77
2023/09/06 09:58:09;;;;;;;;;8.33;6.00;;;;;-146.67;100.00;57155.34;5112347;28;10108;-77
2023/09/06 10:00:39;;;;;;;;;6.67;5.67;;;;;-146.67;100.00;57155.34;5123749;28;9062;-77
2023/09/06 10:03:05;;;;;;;;;7.00;6.00;;;;;-146.67;100.00;57155.34;5110973;28;9253;-77
2023/09/06 10:05:31;;;;;;;;;6.00;4.33;;;;;-146.67;100.00;57155.34;5122770;28;9084;-77
2023/09/06 10:07:58;;;;;;;;;8.00;6.67;;;;;-146.67;100.00;57155.34;5114419;28;11703;-77
2023/09/06 10:10:26;;;;;;;;;5.67;5.00;;;;;-146.67;100.00;57155.34;5102983;28;9007;-80
2023/09/06 10:12:52;;;;;;;;;7.00;4.67;;;;;-146.67;100.00;57155.34;5103796;28;9061;-76
2023/09/06 10:15:23;;;;;;;;;6.00;6.00;;;;;-146.67;100.00;57155.34;5111134;28;9099;-79
2023/09/06 10:17:50;;;;;;;;;9.00;8.00;;;;;-146.67;100.00;57155.34;5110244;28;9320;-78
2023/09/06 10:20:16;;;;;;;;;6.00;6.00;;;;;-146.67;100.00;57155.34;5119279;28;9407;-85
2023/09/06 10:22:46;;;;;;;;;6.33;6.33;;;;;-146.67;100.00;57155.34;5101775;28;9111;-79
2023/09/06 10:25:15;;;;;;;;;6.33;6.33;;;;;-146.67;100.00;57155.34;5104810;28;9087;-77
2023/09/06 10:27:53;;;;;;;;;5.00;5.00;;;;;-146.67;100.00;57155.34;5086920;28;11061;-78
2023/09/06 10:30:44;;;;;;;;;5.00;4.00;;;;;-146.67;100.00;57155.34;5089383;28;9082;-87
2023/09/06 10:33:11;;;;;;;;;7.00;6.00;;;;;-146.67;100.00;57155.34;5125828;28;8939;-79
2023/09/06 10:35:42;;;;;;;;;8.00;7.00;;;;;-146.67;100.00;57155.34;5121673;28;9111;-82
2023/09/06 10:38:15;;;;;;;;;10.67;7.00;;;;;-146.67;100.00;57155.34;5124478;28;9201;-80
2023/09/06 10:40:50;;;;;;;;;6.00;4.33;;;;;-146.67;100.00;57155.34;5116349;28;8902;-77
2023/09/06 10:43:26;;;;;;;;;6.25;5.25;;;;;-146.67;100.00;57155.34;5096626;28;8877;-78
2023/09/06 10:45:55;;;;;;;;;7.67;6.67;;;;;-146.67;100.00;57155.34;5092162;28;8769;-78
2023/09/06 10:48:21;;;;;;;;;8.00;8.00;;;;;-146.67;100.00;57155.34;5107379;28;9127;-85
2023/09/06 10:51:06;;;;;;;;;5.67;5.67;;;;;-146.67;100.00;57155.34;5107425;28;8962;-79
2023/09/06 10:53:33;;;;;;;;;7.00;6.00;;;;;-146.67;100.00;57155.34;5096455;28;8777;-83
2023/09/06 10:56:01;;;;;;;;;6.67;6.33;;;;;-146.67;100.00;57155.34;5109271;28;8911;-79
2023/09/06 10:58:29;;;;;;;;;4.00;4.00;;;;;-146.67;100.00;57155.34;5109184;28;9154;-76
2023/09/06 11:01:13;;;;;;;;;9.00;8.00;;;;;-146.67;100.00;57155.34;5112509;28;8943;-77
2023/09/06 11:03:40;;;;;;;;;8.25;8.25;;;;;-146.67;100.00;57155.34;5111186;28;8989;-79
2023/09/06 11:06:06;;;;;;;;;9.00;5.67;;;;;-146.67;100.00;57155.34;5111997;28;9220;-80
2023/09/06 11:08:32;;;;;;;;;9.00;7.33;;;;;-146.67;100.00;57155.34;5113082;28;9911;-78
2023/09/06 11:11:09;;;;;;;;;7.50;7.50;;;;;-146.67;100.00;57155.34;5115144;28;8727;-86